Time;durP1;ratioP1;P1;durP2;ratioP2;P2;SDS_P1;SDS_P2;PMS_P1;PMS_P2;Temp;Humidity;BMP_temperature;BMP_pressure;BME280_temperature;BME280_humidity;BME280_pressure;Samples;Min_cycle;Max_cycle;Signal;HPM_P1;HPM_P2
2021/04/13 00:01:12;;;;;;;1.80;1.80;;;;;;;-1.11;88.71;102744.47;4393185;32;20070;-69
2021/04/13 00:03:41;;;;;;;1.70;1.70;;;;;;;-1.12;88.62;102744.41;4396542;32;20149;-69
2021/04/13 00:06:06;;;;;;;2.00;1.90;;;;;;;-1.17;89.13;102740.84;4409534;32;20946;-69
2021/04/13 00:08:31;;;;;;;2.45;2.25;;;;;;;-1.22;88.76;102740.72;4371185;32;20065;-69
2021/04/13 00:10:58;;;;;;;2.00;1.90;;;;;;;-1.25;88.95;102740.62;4375611;32;20848;-69
2021/04/13 00:13:24;;;;;;;2.10;2.00;;;;;;;-1.28;89.00;102733.69;4390571;32;20180;-69
2021/04/13 00:15:51;;;;;;;1.83;1.83;;;;;;;-1.31;88.50;102737.88;4375951;32;20064;-70
2021/04/13 00:18:26;;;;;;;2.10;2.00;;;;;;;-1.32;88.52;102738.69;4374440;32;20504;-69
2021/04/13 00:20:58;;;;;;;2.20;2.10;;;;;;;-1.37;88.65;102741.13;4372442;32;20082;-70
2021/04/13 00:23:23;;;;;;;2.17;2.08;;;;;;;-1.41;89.07;102734.13;4390734;32;20091;-70
2021/04/13 00:25:51;;;;;;;1.70;1.70;;;;;;;-1.43;88.96;102746.09;4373674;32;20088;-70
2021/04/13 00:28:30;;;;;;;1.92;1.90;;;;;;;-1.76;88.48;102697.91;4386284;32;20211;-70
2021/04/13 00:31:02;;;;;;;2.00;1.90;;;;;;;-1.52;88.53;102738.09;4371066;32;20085;-70
2021/04/13 00:33:30;;;;;;;2.10;2.00;;;;;;;-1.61;88.80;102733.53;4379438;32;20588;-70
2021/04/13 00:36:11;;;;;;;2.00;1.90;;;;;;;-1.56;88.82;102738.81;4383881;32;20093;-70
2021/04/13 00:38:49;;;;;;;2.70;2.60;;;;;;;-1.57;88.67;102742.22;4374106;32;20083;-70
2021/04/13 00:41:20;;;;;;;2.05;2.00;;;;;;;-1.63;89.03;102736.03;4378432;32;20089;-70
2021/04/13 00:43:53;;;;;;;2.42;2.33;;;;;;;-1.74;88.72;102726.28;4376075;32;20083;-70
2021/04/13 00:46:20;;;;;;;1.67;1.67;;;;;;;-1.71;88.92;102736.66;4378458;32;20698;-70
2021/04/13 00:48:45;;;;;;;2.15;2.05;;;;;;;-1.75;88.91;102745.97;4378563;32;20079;-70
2021/04/13 00:51:20;;;;;;;2.42;2.22;;;;;;;-1.79;88.96;102745.81;4374224;32;20069;-70
2021/04/13 00:53:48;;;;;;;1.80;1.80;;;;;;;-1.81;88.66;102745.78;4377075;32;20061;-71
2021/04/13 00:56:14;;;;;;;1.80;1.80;;;;;;;-1.84;88.99;102743.12;4370334;32;20073;-70
2021/04/13 00:58:45;;;;;;;1.95;1.85;;;;;;;-1.87;88.74;102750.72;4387412;32;20084;-70
2021/04/13 01:01:22;;;;;;;1.80;1.80;;;;;;;-1.88;88.97;102743.84;4384664;32;20068;-70
2021/04/13 01:04:01;;;;;;;1.83;1.80;;;;;;;-1.92;89.06;102742.88;4388269;32;20068;-70
2021/04/13 01:06:27;;;;;;;2.00;1.90;;;;;;;-1.91;88.77;102754.88;4399680;32;20061;-70
2021/04/13 01:09:22;;;;;;;1.80;1.80;;;;;;;-1.97;88.81;102746.09;4373552;32;20912;-71
2021/04/13 01:12:02;;;;;;;2.05;1.95;;;;;;;-1.98;89.02;102742.66;4394761;32;20227;-70
2021/04/13 01:14:29;;;;;;;1.83;1.80;;;;;;;-1.94;88.96;102738.50;4387580;32;20084;-70
2021/04/13 01:16:59;;;;;;;1.80;1.80;;;;;;;-2.13;88.98;102724.16;4370638;32;20075;-70
2021/04/13 01:19:50;;;;;;;1.90;1.80;;;;;;;-1.99;89.20;102740.91;4388698;32;20089;-70
2021/04/13 01:22:37;;;;;;;2.03;1.92;;;;;;;-1.99;88.86;102745.19;4386516;32;20087;-70
2021/04/13 01:25:07;;;;;;;1.80;1.80;;;;;;;-1.95;89.22;102744.47;4375847;32;20069;-71
2021/04/13 01:27:32;;;;;;;1.80;1.80;;;;;;;-1.98;88.99;102742.66;4385656;32;20069;-70
2021/04/13 01:30:00;;;;;;;2.00;1.90;;;;;;;-2.02;88.77;102744.25;4378246;32;20630;-70
2021/04/13 01:32:26;;;;;;;1.80;1.80;;;;;;;-2.07;89.13;102745.78;4386364;32;20786;-70
2021/04/13 01:35:02;;;;;;;1.70;1.70;;;;;;;-2.09;89.49;102744.00;4383514;32;20073;-70
2021/04/13 01:38:25;;;;;;;1.80;1.80;;;;;;;-2.12;89.26;102747.34;4384971;32;20089;-70
2021/04/13 01:40:51;;;;;;;1.67;1.67;;;;;;;-2.14;89.24;102748.13;4388237;32;20104;-70
2021/04/13 01:43:17;;;;;;;3.83;3.67;;;;;;;-2.20;89.40;102741.09;4372051;32;20084;-70
2021/04/13 01:45:42;;;;;;;1.80;1.80;;;;;;;-2.19;89.13;102747.97;4394601;32;20081;-69
2021/04/13 01:48:09;;;;;;;2.05;1.95;;;;;;;-2.54;89.25;102683.38;4367926;32;20081;-69
2021/04/13 01:50:40;;;;;;;2.00;1.90;;;;;;;-2.23;89.40;102746.97;4375870;32;20073;-69
2021/04/13 01:53:12;;;;;;;1.70;1.70;;;;;;;-2.35;89.56;102725.13;4381217;32;20853;-69
2021/04/13 01:55:38;;;;;;;1.73;1.73;;;;;;;-2.22;90.10;102747.88;4401992;32;20069;-69
2021/04/13 01:58:24;;;;;;;2.00;1.90;;;;;;;-2.25;90.12;102751.19;4373319;32;21032;-69
2021/04/13 02:01:10;;;;;;;1.80;1.80;;;;;;;-2.27;90.10;102754.53;4387114;32;20728;-69
2021/04/13 02:03:41;;;;;;;1.80;1.80;;;;;;;-2.33;89.78;102754.34;4384407;32;20085;-70
2021/04/13 02:06:20;;;;;;;1.70;1.70;;;;;;;-2.36;89.64;102756.81;4398744;32;20076;-71
2021/04/13 02:08:48;;;;;;;1.75;1.75;;;;;;;-2.40;89.92;102753.28;4369574;32;20085;-70
2021/04/13 02:11:35;;;;;;;1.80;1.80;;;;;;;-2.43;89.59;102755.72;4384294;32;20074;-70
2021/04/13 02:14:11;;;;;;;1.90;1.83;;;;;;;-2.43;89.67;102764.28;4368737;32;20091;-69
2021/04/13 02:16:48;;;;;;;2.05;1.95;;;;;;;-2.43;89.67;102763.44;4378249;32;20079;-69
2021/04/13 02:19:13;;;;;;;2.00;1.90;;;;;;;-2.44;89.68;102760.00;4392826;32;20155;-70
2021/04/13 02:21:41;;;;;;;2.00;1.90;;;;;;;-2.44;89.68;102766.84;4372745;32;20583;-69
2021/04/13 02:24:11;;;;;;;2.35;2.25;;;;;;;-2.45;89.87;102765.06;4370548;32;20089;-69
2021/04/13 02:26:41;;;;;;;2.20;2.10;;;;;;;-2.47;89.61;102764.16;4376725;32;20487;-69
2021/04/13 02:29:07;;;;;;;2.40;2.30;;;;;;;-2.49;89.84;102774.38;4372891;32;20093;-69
2021/04/13 02:31:47;;;;;;;1.70;1.70;;;;;;;-2.46;89.84;102771.06;4384986;32;21782;-69
2021/04/13 02:34:14;;;;;;;7.25;2.45;;;;;;;-2.49;89.57;102766.66;4374989;32;20476;-69
2021/04/13 02:36:40;;;;;;;1.80;1.80;;;;;;;-2.49;89.84;102778.66;4404522;32;20073;-69
2021/04/13 02:39:05;;;;;;;2.92;2.83;;;;;;;-2.48;89.83;102776.13;4376853;32;20079;-69
2021/04/13 02:41:38;;;;;;;1.60;1.60;;;;;;;-2.48;89.78;102780.41;4369511;32;20654;-69
2021/04/13 02:44:06;;;;;;;2.00;1.90;;;;;;;-2.41;89.83;102772.06;4375139;32;20555;-69
2021/04/13 02:46:31;;;;;;;1.80;1.80;;;;;;;-2.42;89.74;102770.34;4372817;32;20187;-69
2021/04/13 02:49:05;;;;;;;1.70;1.70;;;;;;;-2.41;90.16;102765.25;4377873;32;20133;-69
2021/04/13 02:51:34;;;;;;;1.80;1.80;;;;;;;-2.47;90.03;102770.16;4374386;32;20126;-69
2021/04/13 02:54:00;;;;;;;1.83;1.80;;;;;;;-2.33;90.15;102775.78;4379509;32;20077;-69
2021/04/13 02:56:36;;;;;;;1.77;1.77;;;;;;;-2.28;90.33;102771.69;4370518;32;20729;-69
2021/04/13 02:59:07;;;;;;;1.80;1.80;;;;;;;-2.22;90.43;102769.31;4374410;32;20088;-69
2021/04/13 03:01:33;;;;;;;1.87;1.83;;;;;;;-2.16;90.00;102771.22;4384030;32;20084;-69
2021/04/13 03:04:01;;;;;;;1.70;1.70;;;;;;;-2.12;90.50;102765.37;4372657;32;20074;-69
2021/04/13 03:06:27;;;;;;;1.80;1.80;;;;;;;-2.03;90.22;102762.22;4376687;32;20307;-69
2021/04/13 03:08:52;;;;;;;2.12;2.03;;;;;;;-2.04;90.42;102761.34;4370596;32;20248;-70
2021/04/13 03:11:19;;;;;;;1.73;1.73;;;;;;;-1.92;90.58;102766.03;4370535;32;20070;-69
2021/04/13 03:13:44;;;;;;;1.70;1.70;;;;;;;-1.93;90.79;102760.81;4380343;32;20084;-70
2021/04/13 03:16:10;;;;;;;2.10;2.00;;;;;;;-1.88;90.83;102759.28;4373595;32;20223;-69
2021/04/13 03:18:40;;;;;;;2.10;2.00;;;;;;;-1.88;90.65;102759.28;4364483;32;20673;-69
2021/04/13 03:21:10;;;;;;;2.10;2.00;;;;;;;-1.90;90.38;102766.94;4377879;32;20069;-70
2021/04/13 03:23:35;;;;;;;1.70;1.70;;;;;;;-1.87;90.70;102772.19;4376167;32;20964;-70
2021/04/13 03:26:05;;;;;;;1.60;1.60;;;;;;;-1.88;90.56;102770.44;4375909;32;20074;-70
2021/04/13 03:28:32;;;;;;;2.10;2.00;;;;;;;-1.90;90.45;102748.94;4373791;32;20085;-69
2021/04/13 03:30:58;;;;;;;1.80;1.80;;;;;;;-1.88;90.30;102731.84;4384067;32;20084;-69
2021/04/13 03:33:25;;;;;;;1.60;1.60;;;;;;;-1.93;90.65;102735.09;4382516;32;20164;-69
2021/04/13 03:35:50;;;;;;;2.00;1.90;;;;;;;-1.97;90.63;102723.81;4389629;32;20138;-69
2021/04/13 03:38:19;;;;;;;2.30;2.10;;;;;;;-1.53;90.53;102819.59;4370819;32;20077;-69
2021/04/13 03:40:47;;;;;;;2.40;2.30;;;;;;;-1.52;90.50;102774.16;4391872;32;20062;-69
2021/04/13 03:43:13;;;;;;;2.00;1.90;;;;;;;-2.03;90.45;102714.19;4385949;32;20087;-70
2021/04/13 03:45:38;;;;;;;1.80;1.80;;;;;;;-1.71;90.51;102767.53;4373163;32;20098;-69
2021/04/13 03:48:18;;;;;;;2.40;2.30;;;;;;;-1.77;90.12;102767.34;4378056;32;20085;-69
2021/04/13 03:50:43;;;;;;;1.85;1.83;;;;;;;-1.71;90.40;102775.25;4387519;32;20100;-69
2021/04/13 03:53:13;;;;;;;1.80;1.80;;;;;;;-1.74;90.58;102777.75;4392023;32;20153;-69
2021/04/13 03:55:39;;;;;;;1.70;1.70;;;;;;;-1.93;90.47;102745.37;4373762;32;20364;-70
2021/04/13 03:58:20;;;;;;;2.00;1.90;;;;;;;-1.75;90.23;102783.69;4377350;32;20092;-70
2021/04/13 04:00:46;;;;;;;1.80;1.80;;;;;;;-1.84;90.02;102781.72;4369872;32;20105;-70
2021/04/13 04:03:11;;;;;;;1.60;1.60;;;;;;;-1.82;90.51;102786.09;4386673;32;20402;-69
2021/04/13 04:05:52;;;;;;;2.10;2.00;;;;;;;-1.90;90.19;102772.09;4375654;32;20823;-69
2021/04/13 04:08:31;;;;;;;2.00;1.90;;;;;;;-1.83;90.17;102776.59;4390187;32;20061;-69
2021/04/13 04:10:57;;;;;;;2.10;2.00;;;;;;;-1.86;90.31;102781.66;4385275;32;20280;-69
2021/04/13 04:13:25;;;;;;;1.70;1.70;;;;;;;-1.86;90.08;102780.78;4392778;32;20581;-69
2021/04/13 04:16:02;;;;;;;1.80;1.80;;;;;;;-1.84;90.56;102785.16;4404510;32;20075;-70
2021/04/13 04:18:29;;;;;;;1.80;1.80;;;;;;;-1.86;90.66;102793.66;4392194;32;20771;-69
2021/04/13 04:20:55;;;;;;;1.80;1.80;;;;;;;-2.30;90.30;102705.59;4385583;32;20125;-69
2021/04/13 04:23:28;;;;;;;1.70;1.70;;;;;;;-1.79;90.22;102795.59;4389495;32;20078;-69
2021/04/13 04:25:58;;;;;;;1.90;1.90;;;;;;;-1.85;90.76;102785.97;4386667;32;20149;-70
2021/04/13 04:28:26;;;;;;;1.70;1.70;;;;;;;-1.73;90.45;102795.78;4392445;32;20301;-69
2021/04/13 04:30:54;;;;;;;3.15;2.95;;;;;;;-1.72;90.81;102799.25;4373057;32;20346;-71
2021/04/13 04:33:34;;;;;;;1.77;1.77;;;;;;;-1.73;90.56;102800.94;4391937;32;20073;-69
2021/04/13 04:35:59;;;;;;;2.25;2.15;;;;;;;-1.75;90.55;102800.00;4377816;32;20155;-70
2021/04/13 04:38:32;;;;;;;1.70;1.70;;;;;;;-1.79;90.62;102802.44;4381598;32;20065;-69
2021/04/13 04:41:02;;;;;;;2.37;2.28;;;;;;;-1.83;90.74;102810.06;4370175;32;20069;-69
2021/04/13 04:43:56;;;;;;;1.70;1.70;;;;;;;-1.85;90.87;102805.69;4382654;32;20685;-69
2021/04/13 04:46:35;;;;;;;3.78;3.65;;;;;;;-1.86;90.81;102809.09;4390851;32;20406;-69
2021/04/13 04:49:03;;;;;;;1.75;1.75;;;;;;;-1.82;90.67;102805.81;4421007;32;20381;-70
2021/04/13 04:51:29;;;;;;;2.80;2.70;;;;;;;-1.70;91.30;102820.78;4409628;27;20064;-68
2021/04/13 04:53:54;;;;;;;2.10;2.00;;;;;;;-1.56;91.22;102816.03;4428120;32;20091;-68
2021/04/13 04:56:19;;;;;;;1.87;1.87;;;;;;;-1.55;90.77;102820.38;4417610;32;20145;-67
2021/04/13 04:58:45;;;;;;;2.03;1.95;;;;;;;-1.54;90.90;102820.44;4424105;32;20133;-68
2021/04/13 05:01:10;;;;;;;1.80;1.80;;;;;;;-1.46;90.72;102825.84;4427857;32;20059;-67
2021/04/13 05:03:36;;;;;;;2.20;2.10;;;;;;;-1.37;91.02;102831.25;4412756;32;20614;-68
2021/04/13 05:06:01;;;;;;;1.80;1.80;;;;;;;-1.33;90.97;102827.97;4422624;32;20138;-68
2021/04/13 05:08:27;;;;;;;2.10;2.00;;;;;;;-1.27;90.66;102842.75;4424193;32;20088;-68
2021/04/13 05:10:52;;;;;;;1.73;1.73;;;;;;;-1.26;90.63;102837.63;4428282;32;20108;-68
2021/04/13 05:13:18;;;;;;;1.98;1.90;;;;;;;-1.23;90.71;102839.44;4417109;32;20589;-67
2021/04/13 05:15:43;;;;;;;1.90;1.80;;;;;;;-1.24;90.62;102832.53;4430412;32;20075;-67
2021/04/13 05:18:09;;;;;;;2.40;2.30;;;;;;;-1.15;91.12;102839.66;4423794;32;20072;-67
2021/04/13 05:20:34;;;;;;;1.90;1.90;;;;;;;-1.11;91.15;102847.53;4440649;32;20199;-67
2021/04/13 05:23:00;;;;;;;1.80;1.80;;;;;;;-1.11;90.54;102837.22;4438486;32;20056;-67
2021/04/13 05:25:25;;;;;;;1.70;1.70;;;;;;;-1.01;91.01;102854.72;4439957;32;20133;-67
2021/04/13 05:27:51;;;;;;;2.85;2.75;;;;;;;-0.96;90.59;102860.03;4425312;32;20060;-68
2021/04/13 05:30:17;;;;;;;1.80;1.80;;;;;;;-0.86;91.25;102862.03;4425542;32;20073;-68
2021/04/13 05:32:42;;;;;;;1.80;1.80;;;;;;;-0.74;90.76;102858.97;4426692;32;20067;-68
2021/04/13 05:35:08;;;;;;;2.00;1.90;;;;;;;-0.64;91.25;102865.28;4425896;32;20131;-68
2021/04/13 05:37:34;;;;;;;1.70;1.70;;;;;;;-0.56;91.12;102868.94;4429195;32;20086;-68
2021/04/13 05:40:00;;;;;;;1.80;1.80;;;;;;;-0.44;90.96;102869.28;4419576;32;20072;-68
2021/04/13 05:42:30;;;;;;;1.90;1.85;;;;;;;-0.37;91.51;102874.63;4439230;32;20140;-68
2021/04/13 05:44:55;;;;;;;1.80;1.80;;;;;;;-0.41;90.74;102871.94;4426670;32;20077;-68
2021/04/13 05:47:21;;;;;;;3.55;3.45;;;;;;;-0.39;90.52;102882.31;4425358;32;20053;-68
2021/04/13 05:49:47;;;;;;;1.80;1.80;;;;;;;-0.61;90.40;102834.41;4422264;32;20104;-68
2021/04/13 05:52:12;;;;;;;1.73;1.73;;;;;;;-0.31;91.07;102869.63;4423848;32;20064;-67
2021/04/13 05:54:37;;;;;;;1.80;1.80;;;;;;;-0.10;90.76;102890.87;4425723;32;20076;-68
2021/04/13 05:57:03;;;;;;;2.30;2.20;;;;;;;0.03;91.53;102898.94;4435829;32;20068;-68
2021/04/13 05:59:31;;;;;;;1.80;1.80;;;;;;;0.15;91.02;102901.84;4412997;32;20056;-68
2021/04/13 06:01:57;;;;;;;2.10;2.00;;;;;;;0.26;91.03;102900.44;4427290;32;20972;-67
2021/04/13 06:04:22;;;;;;;2.37;2.28;;;;;;;0.05;91.54;102849.09;4427025;32;22343;-67
2021/04/13 06:06:48;;;;;;;2.12;2.03;;;;;;;0.33;90.78;102899.72;4425226;32;20175;-68
2021/04/13 06:09:13;;;;;;;1.80;1.80;;;;;;;0.48;91.42;102901.84;4430136;32;20080;-68
2021/04/13 06:11:40;;;;;;;2.35;2.25;;;;;;;0.56;90.97;102909.75;4424901;32;20120;-68
2021/04/13 06:14:05;;;;;;;2.00;1.90;;;;;;;0.63;90.65;102896.19;4437204;32;20130;-68
2021/04/13 06:16:38;;;;;;;2.72;2.62;;;;;;;0.39;91.49;102840.47;4423829;32;20522;-68
2021/04/13 06:19:04;;;;;;;1.85;1.85;;;;;;;0.76;91.79;102887.00;4439934;32;20695;-68
2021/04/13 06:21:29;;;;;;;2.00;1.90;;;;;;;0.92;91.25;102907.22;4426972;32;20065;-69
2021/04/13 06:23:54;;;;;;;2.60;2.40;;;;;;;0.58;91.68;102846.97;4428568;32;20088;-69
2021/04/13 06:26:20;;;;;;;2.20;2.10;;;;;;;1.07;91.31;102908.41;4424465;32;20072;-68
2021/04/13 06:28:46;;;;;;;2.20;2.10;;;;;;;1.06;89.70;102911.81;4427108;32;20671;-70
2021/04/13 06:31:11;;;;;;;2.20;2.10;;;;;;;0.91;87.44;102920.97;4426685;32;20182;-68
2021/04/13 06:33:36;;;;;;;2.10;2.00;;;;;;;0.81;86.07;102924.19;4427444;32;20705;-68
2021/04/13 06:36:02;;;;;;;2.47;2.30;;;;;;;0.87;84.99;102916.56;4428482;32;20060;-65
2021/04/13 06:38:28;;;;;;;2.30;2.20;;;;;;;0.96;84.27;102923.66;4402310;32;20083;-66
2021/04/13 06:41:15;;;;;;;2.20;2.10;;;;;;;1.11;85.17;102929.19;4423903;32;20799;-65
2021/04/13 06:43:50;;;;;;;2.10;2.00;;;;;;;1.30;86.05;102933.06;4440044;32;20857;-67
2021/04/13 06:46:27;;;;;;;2.42;2.33;;;;;;;1.28;84.32;102944.22;4438610;32;20203;-65
2021/04/13 06:49:40;;;;;;;2.10;2.00;;;;;;;1.17;85.41;102866.41;4446159;32;20069;-67
2021/04/13 06:52:42;;;;;;;2.10;2.00;;;;;;;1.82;84.91;102941.06;4384303;32;20084;-67
2021/04/13 06:55:10;;;;;;;1.92;1.87;;;;;;;2.09;85.94;102943.34;4383015;32;20084;-67
2021/04/13 06:58:06;;;;;;;2.08;1.98;;;;;;;2.16;84.55;102937.41;4419242;32;20183;-66
2021/04/13 07:01:09;;;;;;;2.40;2.30;;;;;;;2.34;84.95;102952.41;4423460;32;20204;-69
2021/04/13 07:03:49;;;;;;;4.57;2.85;;;;;;;2.50;84.22;102947.53;4434035;32;21404;-66
2021/04/13 07:06:21;;;;;;;2.33;2.22;;;;;;;2.70;84.70;102942.69;4426378;32;20090;-66
2021/04/13 07:08:50;;;;;;;2.50;2.40;;;;;;;2.73;82.12;102946.19;4425332;32;20078;-66
2021/04/13 07:11:26;;;;;;;2.30;2.20;;;;;;;2.90;81.89;102953.38;4425687;32;20667;-66
2021/04/13 07:14:05;;;;;;;2.37;2.28;;;;;;;3.02;80.19;102948.37;4423811;32;20563;-66
2021/04/13 07:16:51;;;;;;;2.92;2.83;;;;;;;3.05;78.19;102940.66;4436939;32;20072;-66
2021/04/13 07:19:26;;;;;;;2.40;2.30;;;;;;;3.29;78.26;102952.25;4427542;32;20079;-65
2021/04/13 07:22:04;;;;;;;2.40;2.30;;;;;;;3.40;77.59;102942.88;4411501;32;20412;-66
2021/04/13 07:25:07;;;;;;;2.40;2.30;;;;;;;2.86;75.79;102949.84;4424798;32;20087;-66
2021/04/13 07:27:45;;;;;;;3.25;3.15;;;;;;;2.60;76.26;102955.47;4435383;32;20164;-66
2021/04/13 07:30:26;;;;;;;2.40;2.30;;;;;;;2.57;78.57;102954.56;4437886;32;20078;-68
2021/04/13 07:32:56;;;;;;;2.40;2.30;;;;;;;2.85;77.82;102957.62;4426256;32;20720;-66
2021/04/13 07:35:22;;;;;;;2.40;2.30;;;;;;;2.86;75.91;102913.56;4430160;32;20097;-67
2021/04/13 07:37:49;;;;;;;2.95;2.85;;;;;;;3.28;75.64;102950.50;4426546;32;20060;-66
2021/04/13 07:40:25;;;;;;;2.20;2.10;;;;;;;3.15;75.43;102942.53;4427658;32;20068;-66
2021/04/13 07:42:57;;;;;;;3.03;2.67;;;;;;;3.30;76.12;102948.78;4436726;32;20129;-68
2021/04/13 07:45:26;;;;;;;3.08;2.90;;;;;;;2.67;76.19;102950.44;4428675;32;20111;-66
2021/04/13 07:47:57;;;;;;;2.40;2.30;;;;;;;2.55;77.17;102949.34;4439241;32;20195;-66
2021/04/13 07:51:03;;;;;;;2.40;2.30;;;;;;;2.84;77.57;102948.09;4435273;32;20095;-66
2021/04/13 07:53:45;;;;;;;2.67;2.58;;;;;;;3.10;77.02;102949.38;4440431;32;20073;-66
2021/04/13 07:56:47;;;;;;;2.30;2.20;;;;;;;2.71;78.05;102955.69;4428470;32;20311;-66
2021/04/13 07:59:26;;;;;;;2.20;2.10;;;;;;;2.86;78.14;102951.59;4418932;32;20070;-66
2021/04/13 08:01:52;;;;;;;2.65;2.55;;;;;;;3.09;76.52;102951.97;4435948;32;20129;-65
2021/04/13 08:04:25;;;;;;;2.20;2.10;;;;;;;3.11;76.71;102904.44;4425071;32;20170;-66
2021/04/13 08:07:01;;;;;;;2.40;2.30;;;;;;;3.74;75.74;102962.37;4426685;32;20073;-66
2021/04/13 08:09:36;;;;;;;2.50;2.40;;;;;;;3.86;75.78;102955.59;4427323;32;20486;-66
2021/04/13 08:12:06;;;;;;;2.30;2.20;;;;;;;3.96;74.33;102953.13;4431784;32;20152;-66
2021/04/13 08:14:34;;;;;;;2.20;2.10;;;;;;;4.19;73.78;102963.78;4440074;32;20102;-66
2021/04/13 08:17:17;;;;;;;2.60;2.50;;;;;;;4.33;73.46;102966.53;4430042;32;20080;-66
2021/04/13 08:19:43;;;;;;;2.50;2.40;;;;;;;4.66;73.66;102959.91;4414328;32;20113;-65
2021/04/13 08:22:13;;;;;;;2.40;2.30;;;;;;;4.77;72.25;102955.66;4430825;32;20086;-66
2021/04/13 08:24:56;;;;;;;2.90;2.80;;;;;;;4.98;71.54;102967.09;4428018;32;20076;-66
2021/04/13 08:27:43;;;;;;;2.50;2.40;;;;;;;4.99;70.03;102958.41;4431739;32;20082;-67
2021/04/13 08:30:26;;;;;;;2.50;2.40;;;;;;;5.03;69.26;102961.91;4439803;32;20470;-66
2021/04/13 08:33:02;;;;;;;2.50;2.40;;;;;;;5.37;69.54;102963.00;4442533;32;20105;-68
2021/04/13 08:36:19;;;;;;;2.50;2.40;;;;;;;5.10;69.82;102961.13;4451674;32;20483;-66
2021/04/13 08:38:52;;;;;;;2.40;2.30;;;;;;;5.00;68.68;102957.56;4430998;32;20721;-68
2021/04/13 08:41:17;;;;;;;2.35;2.25;;;;;;;5.37;68.51;102961.31;4430677;32;20711;-63
2021/04/13 08:43:45;;;;;;;3.05;2.95;;;;;;;5.53;67.04;102964.88;4422560;32;20060;-65
2021/04/13 08:46:20;;;;;;;2.60;2.50;;;;;;;5.96;66.51;102959.00;4433434;32;20098;-63
2021/04/13 08:49:14;;;;;;;3.22;3.12;;;;;;;6.35;66.45;102960.84;4438839;32;20069;-65
2021/04/13 08:51:47;;;;;;;2.65;2.55;;;;;;;6.92;65.25;102957.41;4434262;32;20086;-66
2021/04/13 08:54:18;;;;;;;2.60;2.50;;;;;;;7.19;63.91;102959.97;4417215;32;20171;-69
2021/04/13 08:57:21;;;;;;;3.00;2.90;;;;;;;6.96;61.71;102951.31;4442479;32;20401;-69
2021/04/13 08:59:50;;;;;;;2.80;2.70;;;;;;;7.17;58.43;102959.09;4423521;32;20081;-65
2021/04/13 09:02:33;;;;;;;3.33;2.92;;;;;;;7.38;60.01;102952.97;4424790;32;20072;-65
2021/04/13 09:05:20;;;;;;;2.58;2.47;;;;;;;7.22;60.45;102950.38;4426640;32;20064;-70
2021/04/13 09:07:45;;;;;;;2.78;2.67;;;;;;;7.42;60.99;102955.56;4417161;32;20099;-68
2021/04/13 09:10:28;;;;;;;2.80;2.70;;;;;;;7.28;60.02;102937.34;4440171;32;20088;-69
2021/04/13 09:13:03;;;;;;;2.75;2.65;;;;;;;7.39;57.13;102953.84;4427479;32;20067;-66
2021/04/13 09:15:29;;;;;;;2.65;2.55;;;;;;;7.44;55.76;102945.97;4428097;32;20083;-70
2021/04/13 09:18:15;;;;;;;2.60;2.50;;;;;;;7.82;56.09;102944.97;4433428;32;20100;-68
2021/04/13 09:20:45;;;;;;;2.80;2.70;;;;;;;8.18;57.01;102943.94;4422388;32;20088;-66
2021/04/13 09:23:24;;;;;;;2.78;2.67;;;;;;;7.52;55.06;102816.22;4438121;32;20096;-69
2021/04/13 09:25:54;;;;;;;2.90;2.80;;;;;;;8.79;52.23;102929.53;4443170;32;20068;-67
2021/04/13 09:28:21;;;;;;;3.20;3.10;;;;;;;9.11;53.88;102936.22;4435072;32;20086;-69
2021/04/13 09:31:04;;;;;;;3.40;3.30;;;;;;;8.47;55.12;102930.66;4437145;32;20149;-71
2021/04/13 09:33:36;;;;;;;3.10;3.00;;;;;;;8.10;54.95;102935.25;4422329;32;20537;-70
2021/04/13 09:36:15;;;;;;;2.90;2.80;;;;;;;7.19;56.88;102938.22;4430483;32;20072;-69
2021/04/13 09:38:50;;;;;;;3.05;2.95;;;;;;;7.17;55.74;102938.19;4436202;32;20947;-70
2021/04/13 09:41:31;;;;;;;2.90;2.80;;;;;;;7.57;55.32;102940.69;4429269;32;20068;-69
2021/04/13 09:44:18;;;;;;;3.00;2.90;;;;;;;7.26;54.67;102939.94;4432525;32;20666;-70
2021/04/13 09:46:46;;;;;;;2.90;2.80;;;;;;;7.45;56.90;102948.59;4431502;32;20558;-68
2021/04/13 09:49:33;;;;;;;3.15;3.05;;;;;;;7.68;56.97;102938.06;4438902;32;20255;-70
2021/04/13 09:52:17;;;;;;;2.83;2.72;;;;;;;7.55;57.43;102937.22;4440420;32;20149;-70
2021/04/13 09:54:44;;;;;;;3.05;2.95;;;;;;;7.17;54.87;102899.03;4436184;32;20633;-69
2021/04/13 09:57:19;;;;;;;2.90;2.80;;;;;;;7.39;54.84;102930.31;4426119;32;20067;-70
2021/04/13 09:59:50;;;;;;;3.05;2.95;;;;;;;7.22;55.46;102921.66;4429900;32;21022;-69
2021/04/13 10:02:20;;;;;;;2.80;2.70;;;;;;;7.15;55.12;102920.81;4437778;32;20084;-68
2021/04/13 10:04:59;;;;;;;2.97;2.87;;;;;;;6.87;55.73;102926.06;4435350;32;20090;-69
2021/04/13 10:07:48;;;;;;;2.90;2.80;;;;;;;6.71;56.99;102925.19;4426966;32;20518;-69
2021/04/13 10:10:23;;;;;;;3.20;3.10;;;;;;;6.65;54.94;102925.19;4423223;32;20175;-69
2021/04/13 10:13:03;;;;;;;2.90;2.80;;;;;;;7.11;53.87;102929.53;4435282;32;20157;-69
2021/04/13 10:15:59;;;;;;;2.70;2.60;;;;;;;7.85;52.65;102919.69;4429810;32;20075;-68
2021/04/13 10:18:49;;;;;;;2.83;2.72;;;;;;;7.98;52.90;102907.44;4450341;32;20127;-68
2021/04/13 10:21:33;;;;;;;2.97;2.87;;;;;;;8.49;50.89;102913.19;4422611;32;20145;-69
2021/04/13 10:24:27;;;;;;;3.20;3.10;;;;;;;8.54;52.27;102910.56;4434027;32;20064;-69
2021/04/13 10:26:52;;;;;;;;;;;;;;;8.89;50.44;102906.75;4436298;32;20844;-68
2021/04/13 10:29:26;;;;;;;3.03;2.92;;;;;;;8.56;48.50;102909.66;4440730;32;19959;-69
2021/04/13 10:32:02;;;;;;;2.90;2.80;;;;;;;8.32;48.83;102900.22;4434220;32;20569;-69
2021/04/13 10:34:55;;;;;;;2.90;2.80;;;;;;;7.97;49.10;102903.94;4434259;32;20092;-69
2021/04/13 10:37:23;;;;;;;;;;;;;;;7.41;50.49;102897.22;4438835;32;21055;-68
2021/04/13 10:40:11;;;;;;;3.25;3.15;;;;;;;7.55;51.18;102898.03;4436129;32;20018;-70
2021/04/13 10:42:58;;;;;;;3.10;3.00;;;;;;;7.68;49.27;102892.78;4422813;32;20069;-71
2021/04/13 10:45:31;;;;;;;2.80;2.70;;;;;;;8.38;46.91;102897.56;4437779;32;20106;-68
2021/04/13 10:48:21;;;;;;;2.97;2.87;;;;;;;8.96;44.19;102888.34;4423242;32;20102;-68
2021/04/13 10:51:16;;;;;;;3.50;3.40;;;;;;;8.96;46.37;102880.50;4435412;32;20083;-68
2021/04/13 10:54:09;;;;;;;3.22;3.12;;;;;;;9.37;45.38;102878.28;4432870;32;20072;-69
2021/04/13 10:56:59;;;;;;;3.37;3.28;;;;;;;9.44;43.87;102873.84;4432423;32;20093;-69
2021/04/13 10:59:50;;;;;;;3.50;3.40;;;;;;;9.86;42.15;102867.19;4436697;32;20084;-68
2021/04/13 11:02:28;;;;;;;3.45;3.35;;;;;;;10.51;40.07;102869.69;4433671;32;20072;-68
2021/04/13 11:04:56;;;;;;;3.80;3.70;;;;;;;10.30;40.45;102870.03;4441533;32;20101;-63
2021/04/13 11:07:59;;;;;;;3.58;3.47;;;;;;;9.36;44.76;102873.94;4432125;32;20604;-68
2021/04/13 11:10:46;;;;;;;3.65;3.55;;;;;;;8.76;45.28;102865.00;4435200;32;20087;-66
2021/04/13 11:13:17;;;;;;;3.70;3.50;;;;;;;8.23;47.75;102870.66;4432215;32;20075;-68
2021/04/13 11:16:02;;;;;;;4.00;3.80;;;;;;;7.98;48.13;102869.06;4438302;32;20562;-69
2021/04/13 11:18:52;;;;;;;3.47;3.37;;;;;;;8.33;48.39;102878.41;4424000;32;20076;-67
2021/04/13 11:21:53;;;;;;;3.50;3.40;;;;;;;9.41;43.75;102863.41;4438221;32;20564;-68
2021/04/13 11:24:56;;;;;;;3.55;3.45;;;;;;;9.03;42.33;102859.47;4438306;32;20156;-68
2021/04/13 11:27:45;;;;;;;3.30;3.20;;;;;;;8.90;42.21;102856.09;4429720;32;20899;-68
2021/04/13 11:30:27;;;;;;;3.83;3.70;;;;;;;8.57;44.15;102855.56;4436032;32;20119;-66
2021/04/13 11:33:08;;;;;;;3.50;3.40;;;;;;;8.65;44.52;102852.88;4427131;32;20454;-69
2021/04/13 11:35:39;;;;;;;3.40;3.30;;;;;;;9.01;44.75;102846.41;4428338;32;20081;-68
2021/04/13 11:38:23;;;;;;;3.40;3.30;;;;;;;8.72;41.90;102847.59;4417733;32;20175;-66
2021/04/13 11:41:17;;;;;;;3.20;3.10;;;;;;;9.02;38.07;102840.28;4437012;32;20076;-68
2021/04/13 11:43:48;;;;;;;3.40;3.30;;;;;;;9.76;38.84;102834.97;4431211;32;20086;-68
2021/04/13 11:46:42;;;;;;;3.40;3.30;;;;;;;10.49;38.64;102833.84;4427618;32;20104;-68
2021/04/13 11:49:11;;;;;;;3.62;3.53;;;;;;;10.60;39.96;102829.25;4418461;32;20094;-65
2021/04/13 11:51:58;;;;;;;3.60;3.50;;;;;;;9.89;40.69;102822.53;4437740;32;20173;-68
2021/04/13 11:54:43;;;;;;;3.45;3.35;;;;;;;9.35;39.95;102823.28;4423436;32;20083;-68
2021/04/13 11:57:16;;;;;;;3.70;3.60;;;;;;;9.38;41.27;102822.38;4434435;32;20076;-69
2021/04/13 11:59:42;;;;;;;3.55;3.45;;;;;;;9.31;42.79;102831.22;4412939;32;20178;-65
2021/04/13 12:02:25;;;;;;;3.40;3.30;;;;;;;8.77;39.93;102827.44;4424442;32;20106;-67